sensor_id;sensor_type;location;lat;lon;timestamp;temperature;humidity
5246;DHT22;54412;51.206;6.888;2023-07-24T00:01:58;19.70;99.90
5246;DHT22;54412;51.206;6.888;2023-07-24T00:04:24;19.70;99.90
5246;DHT22;54412;51.206;6.888;2023-07-24T00:06:49;19.70;99.90
5246;DHT22;54412;51.206;6.888;2023-07-24T00:09:15;19.60;99.90
5246;DHT22;54412;51.206;6.888;2023-07-24T00:11:41;19.60;99.90
5246;DHT22;54412;51.206;6.888;2023-07-24T00:14:06;19.50;99.90
5246;DHT22;54412;51.206;6.888;2023-07-24T00:16:32;19.50;99.90
5246;DHT22;54412;51.206;6.888;2023-07-24T00:18:58;19.50;99.90
5246;DHT22;54412;51.206;6.888;2023-07-24T00:21:23;19.50;99.90
5246;DHT22;54412;51.206;6.888;2023-07-24T00:23:49;19.30;99.90
5246;DHT22;54412;51.206;6.888;2023-07-24T00:26:15;19.40;99.90
5246;DHT22;54412;51.206;6.888;2023-07-24T00:28:40;19.40;99.90
5246;DHT22;54412;51.206;6.888;2023-07-24T00:31:06;19.40;99.90
5246;DHT22;54412;51.206;6.888;2023-07-24T00:33:32;19.40;99.90
5246;DHT22;54412;51.206;6.888;2023-07-24T00:35:58;19.30;99.90
5246;DHT22;54412;51.206;6.888;2023-07-24T00:38:24;19.10;99.90
5246;DHT22;54412;51.206;6.888;2023-07-24T00:40:49;19.00;99.90
5246;DHT22;54412;51.206;6.888;2023-07-24T00:43:16;19.00;99.90
5246;DHT22;54412;51.206;6.888;2023-07-24T00:45:42;19.10;99.90
5246;DHT22;54412;51.206;6.888;2023-07-24T00:48:11;19.00;99.90
5246;DHT22;54412;51.206;6.888;2023-07-24T00:50:37;19.10;99.90
5246;DHT22;54412;51.206;6.888;2023-07-24T00:53:04;19.00;99.90
5246;DHT22;54412;51.206;6.888;2023-07-24T00:55:30;19.00;99.90
5246;DHT22;54412;51.206;6.888;2023-07-24T00:57:58;19.10;99.90
5246;DHT22;54412;51.206;6.888;2023-07-24T01:00:25;19.10;99.90
5246;DHT22;54412;51.206;6.888;2023-07-24T01:02:52;19.10;99.90
5246;DHT22;54412;51.206;6.888;2023-07-24T01:05:20;19.10;99.90
5246;DHT22;54412;51.206;6.888;2023-07-24T01:07:47;19.10;99.90
5246;DHT22;54412;51.206;6.888;2023-07-24T01:10:13;19.10;99.90
5246;DHT22;54412;51.206;6.888;2023-07-24T01:13:07;19.10;99.90
5246;DHT22;54412;51.206;6.888;2023-07-24T01:16:07;19.20;99.90
5246;DHT22;54412;51.206;6.888;2023-07-24T01:18:37;19.20;99.90
5246;DHT22;54412;51.206;6.888;2023-07-24T01:21:05;19.20;99.90
5246;DHT22;54412;51.206;6.888;2023-07-24T01:23:52;19.10;99.90
5246;DHT22;54412;51.206;6.888;2023-07-24T01:26:24;19.10;99.90
5246;DHT22;54412;51.206;6.888;2023-07-24T01:28:50;19.10;99.90
5246;DHT22;54412;51.206;6.888;2023-07-24T01:31:16;19.20;99.90
5246;DHT22;54412;51.206;6.888;2023-07-24T01:33:43;19.20;99.90
5246;DHT22;54412;51.206;6.888;2023-07-24T01:36:10;19.10;99.90
5246;DHT22;54412;51.206;6.888;2023-07-24T01:38:38;19.20;99.90
5246;DHT22;54412;51.206;6.888;2023-07-24T01:41:04;19.20;99.90
5246;DHT22;54412;51.206;6.888;2023-07-24T01:43:30;19.20;99.90
5246;DHT22;54412;51.206;6.888;2023-07-24T01:45:57;19.20;99.90
5246;DHT22;54412;51.206;6.888;2023-07-24T01:48:23;19.20;99.90
5246;DHT22;54412;51.206;6.888;2023-07-24T01:50:49;19.10;99.90
5246;DHT22;54412;51.206;6.888;2023-07-24T01:53:15;19.00;99.90
5246;DHT22;54412;51.206;6.888;2023-07-24T01:55:41;19.00;99.90
5246;DHT22;54412;51.206;6.888;2023-07-24T01:58:07;18.90;99.90
5246;DHT22;54412;51.206;6.888;2023-07-24T02:00:33;19.00;99.90
5246;DHT22;54412;51.206;6.888;2023-07-24T02:02:58;19.00;99.90
5246;DHT22;54412;51.206;6.888;2023-07-24T02:05:26;18.90;99.90
5246;DHT22;54412;51.206;6.888;2023-07-24T02:07:52;18.90;99.90
5246;DHT22;54412;51.206;6.888;2023-07-24T02:10:17;18.90;99.90
5246;DHT22;54412;51.206;6.888;2023-07-24T02:12:43;19.00;99.90
5246;DHT22;54412;51.206;6.888;2023-07-24T02:15:09;19.00;99.90
5246;DHT22;54412;51.206;6.888;2023-07-24T02:17:35;19.00;99.90
5246;DHT22;54412;51.206;6.888;2023-07-24T02:20:01;19.00;99.90
5246;DHT22;54412;51.206;6.888;2023-07-24T02:22:26;19.00;99.90
5246;DHT22;54412;51.206;6.888;2023-07-24T02:24:52;19.00;99.90
5246;DHT22;54412;51.206;6.888;2023-07-24T02:27:26;18.90;99.90
5246;DHT22;54412;51.206;6.888;2023-07-24T02:29:53;19.00;99.90
5246;DHT22;54412;51.206;6.888;2023-07-24T02:32:20;18.80;99.90
5246;DHT22;54412;51.206;6.888;2023-07-24T02:34:51;18.80;99.90
5246;DHT22;54412;51.206;6.888;2023-07-24T02:37:18;18.80;99.90
5246;DHT22;54412;51.206;6.888;2023-07-24T02:39:45;18.90;99.90
5246;DHT22;54412;51.206;6.888;2023-07-24T02:42:11;18.90;99.90
5246;DHT22;54412;51.206;6.888;2023-07-24T02:44:37;18.90;99.90
5246;DHT22;54412;51.206;6.888;2023-07-24T02:47:03;18.80;99.90
5246;DHT22;54412;51.206;6.888;2023-07-24T02:49:29;18.80;99.90
5246;DHT22;54412;51.206;6.888;2023-07-24T02:51:55;18.90;99.90
5246;DHT22;54412;51.206;6.888;2023-07-24T02:54:21;18.90;99.90
5246;DHT22;54412;51.206;6.888;2023-07-24T02:56:46;18.90;99.90
5246;DHT22;54412;51.206;6.888;2023-07-24T02:59:12;18.90;99.90
5246;DHT22;54412;51.206;6.888;2023-07-24T03:01:38;18.90;99.90
5246;DHT22;54412;51.206;6.888;2023-07-24T03:04:04;18.90;99.90
5246;DHT22;54412;51.206;6.888;2023-07-24T03:06:31;18.80;99.90
5246;DHT22;54412;51.206;6.888;2023-07-24T03:08:57;18.70;99.90
5246;DHT22;54412;51.206;6.888;2023-07-24T03:11:23;18.80;99.90
5246;DHT22;54412;51.206;6.888;2023-07-24T03:13:48;18.90;99.90
5246;DHT22;54412;51.206;6.888;2023-07-24T03:16:14;18.90;99.90
5246;DHT22;54412;51.206;6.888;2023-07-24T03:18:42;18.90;99.90
5246;DHT22;54412;51.206;6.888;2023-07-24T03:21:08;18.70;99.90
5246;DHT22;54412;51.206;6.888;2023-07-24T03:23:34;18.60;99.90
5246;DHT22;54412;51.206;6.888;2023-07-24T03:26:00;18.70;99.90
5246;DHT22;54412;51.206;6.888;2023-07-24T03:28:26;18.70;99.90
5246;DHT22;54412;51.206;6.888;2023-07-24T03:30:52;18.70;99.90
5246;DHT22;54412;51.206;6.888;2023-07-24T03:33:18;18.70;99.90
5246;DHT22;54412;51.206;6.888;2023-07-24T03:35:44;18.60;99.90
5246;DHT22;54412;51.206;6.888;2023-07-24T03:38:09;18.60;99.90
5246;DHT22;54412;51.206;6.888;2023-07-24T03:40:35;18.70;99.90
5246;DHT22;54412;51.206;6.888;2023-07-24T03:43:00;18.80;99.90
5246;DHT22;54412;51.206;6.888;2023-07-24T03:45:26;18.70;99.90
5246;DHT22;54412;51.206;6.888;2023-07-24T03:47:52;18.80;99.90
5246;DHT22;54412;51.206;6.888;2023-07-24T03:50:17;19.00;99.90
5246;DHT22;54412;51.206;6.888;2023-07-24T03:52:43;19.00;99.90
5246;DHT22;54412;51.206;6.888;2023-07-24T03:55:09;18.90;99.90
5246;DHT22;54412;51.206;6.888;2023-07-24T03:57:35;18.90;99.90
5246;DHT22;54412;51.206;6.888;2023-07-24T04:00:02;18.90;99.90
5246;DHT22;54412;51.206;6.888;2023-07-24T04:02:28;18.80;99.90
5246;DHT22;54412;51.206;6.888;2023-07-24T04:04:54;18.80;99.90
5246;DHT22;54412;51.206;6.888;2023-07-24T04:07:19;18.80;99.90
5246;DHT22;54412;51.206;6.888;2023-07-24T04:09:45;18.90;99.90
5246;DHT22;54412;51.206;6.888;2023-07-24T04:12:11;18.90;99.90
5246;DHT22;54412;51.206;6.888;2023-07-24T04:14:36;18.90;99.90
5246;DHT22;54412;51.206;6.888;2023-07-24T04:17:02;18.80;99.90
5246;DHT22;54412;51.206;6.888;2023-07-24T04:19:28;18.80;99.90
5246;DHT22;54412;51.206;6.888;2023-07-24T04:21:53;18.80;99.90
5246;DHT22;54412;51.206;6.888;2023-07-24T04:24:19;18.80;99.90
5246;DHT22;54412;51.206;6.888;2023-07-24T04:26:45;18.80;99.90
5246;DHT22;54412;51.206;6.888;2023-07-24T04:29:10;18.80;99.90
5246;DHT22;54412;51.206;6.888;2023-07-24T04:31:36;18.90;99.90
5246;DHT22;54412;51.206;6.888;2023-07-24T04:34:02;19.00;99.90
5246;DHT22;54412;51.206;6.888;2023-07-24T04:36:28;18.80;99.90
5246;DHT22;54412;51.206;6.888;2023-07-24T04:38:53;18.80;99.90
5246;DHT22;54412;51.206;6.888;2023-07-24T04:41:19;18.90;99.90
5246;DHT22;54412;51.206;6.888;2023-07-24T04:43:45;18.90;99.90
5246;DHT22;54412;51.206;6.888;2023-07-24T04:46:10;18.90;99.90
5246;DHT22;54412;51.206;6.888;2023-07-24T04:48:36;18.90;99.90
5246;DHT22;54412;51.206;6.888;2023-07-24T04:51:02;18.90;99.90
5246;DHT22;54412;51.206;6.888;2023-07-24T04:53:27;18.90;99.90
5246;DHT22;54412;51.206;6.888;2023-07-24T04:55:53;19.00;99.90
5246;DHT22;54412;51.206;6.888;2023-07-24T04:58:19;19.10;99.90
5246;DHT22;54412;51.206;6.888;2023-07-24T05:00:44;19.10;99.90
5246;DHT22;54412;51.206;6.888;2023-07-24T05:03:10;19.00;99.90
5246;DHT22;54412;51.206;6.888;2023-07-24T05:05:37;18.90;99.90
5246;DHT22;54412;51.206;6.888;2023-07-24T05:08:03;19.00;99.90
5246;DHT22;54412;51.206;6.888;2023-07-24T05:10:35;19.10;99.90
5246;DHT22;54412;51.206;6.888;2023-07-24T05:13:01;19.10;99.90
5246;DHT22;54412;51.206;6.888;2023-07-24T05:15:27;19.00;99.90
5246;DHT22;54412;51.206;6.888;2023-07-24T05:17:52;19.10;99.90
5246;DHT22;54412;51.206;6.888;2023-07-24T05:20:18;19.10;99.90
5246;DHT22;54412;51.206;6.888;2023-07-24T05:22:44;19.10;99.90
5246;DHT22;54412;51.206;6.888;2023-07-24T05:25:10;19.10;99.90
5246;DHT22;54412;51.206;6.888;2023-07-24T05:27:35;19.00;99.90
5246;DHT22;54412;51.206;6.888;2023-07-24T05:30:01;18.90;99.90
5246;DHT22;54412;51.206;6.888;2023-07-24T05:32:27;19.00;99.90
5246;DHT22;54412;51.206;6.888;2023-07-24T05:34:53;19.00;99.90
5246;DHT22;54412;51.206;6.888;2023-07-24T05:37:18;19.00;99.90
5246;DHT22;54412;51.206;6.888;2023-07-24T05:39:44;19.00;99.90
5246;DHT22;54412;51.206;6.888;2023-07-24T05:42:10;19.10;99.90
5246;DHT22;54412;51.206;6.888;2023-07-24T05:44:36;19.10;99.90
5246;DHT22;54412;51.206;6.888;2023-07-24T05:47:03;19.30;99.90
5246;DHT22;54412;51.206;6.888;2023-07-24T05:49:29;19.30;99.90
5246;DHT22;54412;51.206;6.888;2023-07-24T05:51:54;19.20;99.90
5246;DHT22;54412;51.206;6.888;2023-07-24T05:54:21;19.30;99.90
5246;DHT22;54412;51.206;6.888;2023-07-24T05:56:47;19.40;99.90
5246;DHT22;54412;51.206;6.888;2023-07-24T05:59:13;19.30;99.90
5246;DHT22;54412;51.206;6.888;2023-07-24T06:01:39;19.40;99.90
5246;DHT22;54412;51.206;6.888;2023-07-24T06:04:04;19.50;99.90
5246;DHT22;54412;51.206;6.888;2023-07-24T06:06:32;19.40;99.90
5246;DHT22;54412;51.206;6.888;2023-07-24T06:08:58;19.40;99.90
5246;DHT22;54412;51.206;6.888;2023-07-24T06:11:24;19.50;99.90
5246;DHT22;54412;51.206;6.888;2023-07-24T06:13:51;19.40;99.90
5246;DHT22;54412;51.206;6.888;2023-07-24T06:16:18;19.60;99.90
5246;DHT22;54412;51.206;6.888;2023-07-24T06:18:43;19.50;99.90
5246;DHT22;54412;51.206;6.888;2023-07-24T06:21:09;19.50;99.90
5246;DHT22;54412;51.206;6.888;2023-07-24T06:23:35;19.60;99.90
5246;DHT22;54412;51.206;6.888;2023-07-24T06:26:01;19.70;99.90
5246;DHT22;54412;51.206;6.888;2023-07-24T06:28:26;19.60;99.90
5246;DHT22;54412;51.206;6.888;2023-07-24T06:30:54;19.70;99.90
5246;DHT22;54412;51.206;6.888;2023-07-24T06:33:20;19.70;99.90
5246;DHT22;54412;51.206;6.888;2023-07-24T06:35:48;19.60;99.90
5246;DHT22;54412;51.206;6.888;2023-07-24T06:38:15;19.60;99.90
5246;DHT22;54412;51.206;6.888;2023-07-24T06:40:40;19.70;99.90
5246;DHT22;54412;51.206;6.888;2023-07-24T06:43:06;19.80;99.90
5246;DHT22;54412;51.206;6.888;2023-07-24T06:45:32;19.90;99.90
5246;DHT22;54412;51.206;6.888;2023-07-24T06:47:57;19.80;99.90
5246;DHT22;54412;51.206;6.888;2023-07-24T06:50:23;20.00;99.90
5246;DHT22;54412;51.206;6.888;2023-07-24T06:52:49;20.00;99.90
5246;DHT22;54412;51.206;6.888;2023-07-24T06:55:16;20.00;99.90
5246;DHT22;54412;51.206;6.888;2023-07-24T06:57:42;20.00;99.90
5246;DHT22;54412;51.206;6.888;2023-07-24T07:00:08;20.00;99.90
5246;DHT22;54412;51.206;6.888;2023-07-24T07:02:37;19.90;99.90
5246;DHT22;54412;51.206;6.888;2023-07-24T07:05:04;20.00;99.90
5246;DHT22;54412;51.206;6.888;2023-07-24T07:07:30;19.90;99.90
5246;DHT22;54412;51.206;6.888;2023-07-24T07:09:56;19.90;99.90
5246;DHT22;54412;51.206;6.888;2023-07-24T07:12:22;19.80;99.90
5246;DHT22;54412;51.206;6.888;2023-07-24T07:14:47;19.80;99.90
5246;DHT22;54412;51.206;6.888;2023-07-24T07:17:13;19.80;99.90
5246;DHT22;54412;51.206;6.888;2023-07-24T07:19:39;19.90;99.90
5246;DHT22;54412;51.206;6.888;2023-07-24T07:22:05;19.90;99.90
5246;DHT22;54412;51.206;6.888;2023-07-24T07:24:31;20.00;99.90
5246;DHT22;54412;51.206;6.888;2023-07-24T07:26:57;20.10;99.90
5246;DHT22;54412;51.206;6.888;2023-07-24T07:29:23;20.10;99.90
5246;DHT22;54412;51.206;6.888;2023-07-24T07:31:48;20.10;99.90
5246;DHT22;54412;51.206;6.888;2023-07-24T07:34:14;20.00;99.90
5246;DHT22;54412;51.206;6.888;2023-07-24T07:36:39;20.10;99.90
5246;DHT22;54412;51.206;6.888;2023-07-24T07:39:05;20.10;99.90
5246;DHT22;54412;51.206;6.888;2023-07-24T07:41:31;20.10;99.90
5246;DHT22;54412;51.206;6.888;2023-07-24T07:43:57;20.10;99.90
5246;DHT22;54412;51.206;6.888;2023-07-24T07:46:23;20.10;99.90
5246;DHT22;54412;51.206;6.888;2023-07-24T07:48:48;20.20;99.90
5246;DHT22;54412;51.206;6.888;2023-07-24T07:51:15;20.20;99.90
5246;DHT22;54412;51.206;6.888;2023-07-24T07:53:40;20.30;99.90
5246;DHT22;54412;51.206;6.888;2023-07-24T07:56:06;20.30;99.90
5246;DHT22;54412;51.206;6.888;2023-07-24T07:58:32;20.30;99.90
5246;DHT22;54412;51.206;6.888;2023-07-24T08:00:58;20.40;99.90
5246;DHT22;54412;51.206;6.888;2023-07-24T08:03:23;20.40;99.90
5246;DHT22;54412;51.206;6.888;2023-07-24T08:05:49;20.30;99.90
5246;DHT22;54412;51.206;6.888;2023-07-24T08:08:15;20.20;99.90
5246;DHT22;54412;51.206;6.888;2023-07-24T08:10:40;20.30;99.90
5246;DHT22;54412;51.206;6.888;2023-07-24T08:13:06;20.40;99.90
5246;DHT22;54412;51.206;6.888;2023-07-24T08:15:36;20.50;99.90
5246;DHT22;54412;51.206;6.888;2023-07-24T08:18:03;20.60;99.90
5246;DHT22;54412;51.206;6.888;2023-07-24T08:20:30;20.60;99.90
5246;DHT22;54412;51.206;6.888;2023-07-24T08:22:56;20.70;99.90
5246;DHT22;54412;51.206;6.888;2023-07-24T08:25:21;20.60;99.90
5246;DHT22;54412;51.206;6.888;2023-07-24T08:27:47;20.60;99.90
5246;DHT22;54412;51.206;6.888;2023-07-24T08:30:13;20.60;99.90
5246;DHT22;54412;51.206;6.888;2023-07-24T08:32:39;20.70;99.90
5246;DHT22;54412;51.206;6.888;2023-07-24T08:35:05;20.70;99.90
5246;DHT22;54412;51.206;6.888;2023-07-24T08:37:31;20.70;99.90
5246;DHT22;54412;51.206;6.888;2023-07-24T08:39:57;20.70;99.90
5246;DHT22;54412;51.206;6.888;2023-07-24T08:42:23;20.80;99.90
5246;DHT22;54412;51.206;6.888;2023-07-24T08:44:49;20.90;99.90
5246;DHT22;54412;51.206;6.888;2023-07-24T08:47:16;20.80;99.90
5246;DHT22;54412;51.206;6.888;2023-07-24T08:49:43;20.80;99.90
5246;DHT22;54412;51.206;6.888;2023-07-24T08:52:10;20.90;99.90
5246;DHT22;54412;51.206;6.888;2023-07-24T08:54:36;20.60;99.90
5246;DHT22;54412;51.206;6.888;2023-07-24T08:57:08;20.50;99.90
5246;DHT22;54412;51.206;6.888;2023-07-24T08:59:34;20.50;99.90
5246;DHT22;54412;51.206;6.888;2023-07-24T09:02:00;20.60;99.90
5246;DHT22;54412;51.206;6.888;2023-07-24T09:04:26;20.40;99.90
5246;DHT22;54412;51.206;6.888;2023-07-24T09:06:53;20.40;99.90
5246;DHT22;54412;51.206;6.888;2023-07-24T09:09:21;20.40;99.90
5246;DHT22;54412;51.206;6.888;2023-07-24T09:11:49;20.30;99.90
5246;DHT22;54412;51.206;6.888;2023-07-24T09:14:35;20.30;99.90
5246;DHT22;54412;51.206;6.888;2023-07-24T09:17:08;20.30;99.90
5246;DHT22;54412;51.206;6.888;2023-07-24T09:19:35;20.30;99.90
5246;DHT22;54412;51.206;6.888;2023-07-24T09:22:15;20.40;99.90
5246;DHT22;54412;51.206;6.888;2023-07-24T09:24:52;20.40;99.90
5246;DHT22;54412;51.206;6.888;2023-07-24T09:27:28;20.40;99.90
5246;DHT22;54412;51.206;6.888;2023-07-24T09:29:55;20.30;99.90
5246;DHT22;54412;51.206;6.888;2023-07-24T09:32:26;20.40;99.90
5246;DHT22;54412;51.206;6.888;2023-07-24T09:34:53;20.30;99.90
5246;DHT22;54412;51.206;6.888;2023-07-24T09:37:27;20.30;99.90
5246;DHT22;54412;51.206;6.888;2023-07-24T09:39:54;20.10;99.90
5246;DHT22;54412;51.206;6.888;2023-07-24T09:42:30;20.10;99.90
5246;DHT22;54412;51.206;6.888;2023-07-24T09:44:57;20.20;99.90
5246;DHT22;54412;51.206;6.888;2023-07-24T09:47:24;20.20;99.90
5246;DHT22;54412;51.206;6.888;2023-07-24T09:49:51;20.20;99.90
5246;DHT22;54412;51.206;6.888;2023-07-24T09:52:19;20.10;99.90
5246;DHT22;54412;51.206;6.888;2023-07-24T09:54:58;20.10;99.90
5246;DHT22;54412;51.206;6.888;2023-07-24T09:57:26;20.40;99.90
5246;DHT22;54412;51.206;6.888;2023-07-24T09:59:54;20.60;99.90
5246;DHT22;54412;51.206;6.888;2023-07-24T10:02:22;20.80;99.90
5246;DHT22;54412;51.206;6.888;2023-07-24T10:04:49;20.90;99.90
5246;DHT22;54412;51.206;6.888;2023-07-24T10:07:15;21.00;99.90
5246;DHT22;54412;51.206;6.888;2023-07-24T10:09:44;21.10;99.90
5246;DHT22;54412;51.206;6.888;2023-07-24T10:12:10;21.10;99.90
5246;DHT22;54412;51.206;6.888;2023-07-24T10:14:37;21.20;99.90
5246;DHT22;54412;51.206;6.888;2023-07-24T10:17:04;21.10;99.90
5246;DHT22;54412;51.206;6.888;2023-07-24T10:19:40;21.20;99.90
5246;DHT22;54412;51.206;6.888;2023-07-24T10:22:16;21.20;99.90
5246;DHT22;54412;51.206;6.888;2023-07-24T10:24:46;21.20;99.90
5246;DHT22;54412;51.206;6.888;2023-07-24T10:27:13;21.20;99.90
5246;DHT22;54412;51.206;6.888;2023-07-24T10:29:39;21.10;99.90
5246;DHT22;54412;51.206;6.888;2023-07-24T10:32:17;21.00;99.90
5246;DHT22;54412;51.206;6.888;2023-07-24T10:34:43;21.00;99.90
5246;DHT22;54412;51.206;6.888;2023-07-24T10:37:09;21.00;99.90
5246;DHT22;54412;51.206;6.888;2023-07-24T10:39:39;21.00;99.90
5246;DHT22;54412;51.206;6.888;2023-07-24T10:42:09;21.00;99.90
5246;DHT22;54412;51.206;6.888;2023-07-24T10:44:36;21.10;99.90
5246;DHT22;54412;51.206;6.888;2023-07-24T10:47:03;21.10;99.90
5246;DHT22;54412;51.206;6.888;2023-07-24T10:49:29;21.20;99.90
5246;DHT22;54412;51.206;6.888;2023-07-24T10:51:59;21.20;99.90
5246;DHT22;54412;51.206;6.888;2023-07-24T10:54:24;21.30;99.90
5246;DHT22;54412;51.206;6.888;2023-07-24T10:56:57;21.40;99.90
5246;DHT22;54412;51.206;6.888;2023-07-24T10:59:36;21.60;99.90
5246;DHT22;54412;51.206;6.888;2023-07-24T11:02:04;21.60;99.90
5246;DHT22;54412;51.206;6.888;2023-07-24T11:04:30;21.70;99.90
5246;DHT22;54412;51.206;6.888;2023-07-24T11:06:56;21.60;99.90
5246;DHT22;54412;51.206;6.888;2023-07-24T11:09:33;21.60;99.90
5246;DHT22;54412;51.206;6.888;2023-07-24T11:11:59;21.60;99.90
5246;DHT22;54412;51.206;6.888;2023-07-24T11:14:34;21.60;99.90
5246;DHT22;54412;51.206;6.888;2023-07-24T11:16:59;21.50;99.90
5246;DHT22;54412;51.206;6.888;2023-07-24T11:19:25;21.50;99.90
5246;DHT22;54412;51.206;6.888;2023-07-24T11:21:50;21.50;99.90
5246;DHT22;54412;51.206;6.888;2023-07-24T11:24:17;21.30;99.90
5246;DHT22;54412;51.206;6.888;2023-07-24T11:26:43;21.20;99.90
5246;DHT22;54412;51.206;6.888;2023-07-24T11:29:12;21.20;99.90
5246;DHT22;54412;51.206;6.888;2023-07-24T11:31:38;21.10;99.90
5246;DHT22;54412;51.206;6.888;2023-07-24T11:34:05;21.00;99.90
5246;DHT22;54412;51.206;6.888;2023-07-24T11:36:32;20.90;99.90
5246;DHT22;54412;51.206;6.888;2023-07-24T11:38:58;20.80;99.90
5246;DHT22;54412;51.206;6.888;2023-07-24T11:41:25;20.60;99.90
5246;DHT22;54412;51.206;6.888;2023-07-24T11:43:51;20.50;99.90
5246;DHT22;54412;51.206;6.888;2023-07-24T11:46:27;20.40;99.90
5246;DHT22;54412;51.206;6.888;2023-07-24T11:48:54;19.70;99.90
5246;DHT22;54412;51.206;6.888;2023-07-24T11:51:22;19.20;99.90
5246;DHT22;54412;51.206;6.888;2023-07-24T11:53:50;18.60;99.90
5246;DHT22;54412;51.206;6.888;2023-07-24T11:56:17;18.20;99.90
5246;DHT22;54412;51.206;6.888;2023-07-24T11:58:44;18.30;99.90
5246;DHT22;54412;51.206;6.888;2023-07-24T12:01:12;18.10;99.90
5246;DHT22;54412;51.206;6.888;2023-07-24T12:03:39;18.10;99.90
5246;DHT22;54412;51.206;6.888;2023-07-24T12:06:05;18.20;99.90
5246;DHT22;54412;51.206;6.888;2023-07-24T12:08:39;18.20;99.90
5246;DHT22;54412;51.206;6.888;2023-07-24T12:11:16;18.10;99.90
5246;DHT22;54412;51.206;6.888;2023-07-24T12:13:45;18.10;99.90
5246;DHT22;54412;51.206;6.888;2023-07-24T12:16:11;17.90;99.90
5246;DHT22;54412;51.206;6.888;2023-07-24T12:18:37;17.90;99.90
5246;DHT22;54412;51.206;6.888;2023-07-24T12:21:03;18.20;99.90
5246;DHT22;54412;51.206;6.888;2023-07-24T12:23:28;18.60;99.90
5246;DHT22;54412;51.206;6.888;2023-07-24T12:25:54;18.80;99.90
5246;DHT22;54412;51.206;6.888;2023-07-24T12:28:19;18.70;99.90
5246;DHT22;54412;51.206;6.888;2023-07-24T12:30:45;19.00;99.90
5246;DHT22;54412;51.206;6.888;2023-07-24T12:33:14;19.00;99.90
5246;DHT22;54412;51.206;6.888;2023-07-24T12:35:39;19.10;99.90
5246;DHT22;54412;51.206;6.888;2023-07-24T12:38:05;19.30;99.90
5246;DHT22;54412;51.206;6.888;2023-07-24T12:40:31;19.50;99.90
5246;DHT22;54412;51.206;6.888;2023-07-24T12:42:57;20.10;99.90
5246;DHT22;54412;51.206;6.888;2023-07-24T12:45:22;20.10;99.90
5246;DHT22;54412;51.206;6.888;2023-07-24T12:47:48;20.30;99.90
5246;DHT22;54412;51.206;6.888;2023-07-24T12:50:13;20.80;99.90
5246;DHT22;54412;51.206;6.888;2023-07-24T12:52:39;21.30;99.90
5246;DHT22;54412;51.206;6.888;2023-07-24T12:55:05;21.60;99.90
5246;DHT22;54412;51.206;6.888;2023-07-24T12:57:31;21.60;99.90
5246;DHT22;54412;51.206;6.888;2023-07-24T12:59:57;21.60;99.90
5246;DHT22;54412;51.206;6.888;2023-07-24T13:02:23;21.70;99.90
5246;DHT22;54412;51.206;6.888;2023-07-24T13:04:48;22.00;99.90
5246;DHT22;54412;51.206;6.888;2023-07-24T13:07:14;22.10;99.90
5246;DHT22;54412;51.206;6.888;2023-07-24T13:09:40;22.40;99.90
5246;DHT22;54412;51.206;6.888;2023-07-24T13:12:06;22.80;99.90
5246;DHT22;54412;51.206;6.888;2023-07-24T13:14:32;22.70;99.90
5246;DHT22;54412;51.206;6.888;2023-07-24T13:16:58;22.40;99.90
5246;DHT22;54412;51.206;6.888;2023-07-24T13:19:23;22.30;99.90
5246;DHT22;54412;51.206;6.888;2023-07-24T13:21:49;22.30;99.90
5246;DHT22;54412;51.206;6.888;2023-07-24T13:24:15;22.60;99.90
5246;DHT22;54412;51.206;6.888;2023-07-24T13:26:40;22.60;99.90
5246;DHT22;54412;51.206;6.888;2023-07-24T13:29:06;22.50;99.90
5246;DHT22;54412;51.206;6.888;2023-07-24T13:31:32;21.90;99.90
5246;DHT22;54412;51.206;6.888;2023-07-24T13:33:58;21.60;99.90
5246;DHT22;54412;51.206;6.888;2023-07-24T13:36:23;21.50;99.90
5246;DHT22;54412;51.206;6.888;2023-07-24T13:38:49;21.60;99.90
5246;DHT22;54412;51.206;6.888;2023-07-24T13:41:16;21.60;99.90
5246;DHT22;54412;51.206;6.888;2023-07-24T13:43:41;21.30;99.90
5246;DHT22;54412;51.206;6.888;2023-07-24T13:46:07;21.40;99.90
5246;DHT22;54412;51.206;6.888;2023-07-24T13:48:33;21.40;99.90
5246;DHT22;54412;51.206;6.888;2023-07-24T13:50:59;21.40;99.90
5246;DHT22;54412;51.206;6.888;2023-07-24T13:53:25;21.60;99.90
5246;DHT22;54412;51.206;6.888;2023-07-24T13:55:51;21.70;99.90
5246;DHT22;54412;51.206;6.888;2023-07-24T13:58:16;21.80;99.90
5246;DHT22;54412;51.206;6.888;2023-07-24T14:00:42;21.80;99.90
5246;DHT22;54412;51.206;6.888;2023-07-24T14:03:08;21.80;99.90
5246;DHT22;54412;51.206;6.888;2023-07-24T14:05:34;21.50;99.90
5246;DHT22;54412;51.206;6.888;2023-07-24T14:08:02;21.20;99.90
5246;DHT22;54412;51.206;6.888;2023-07-24T14:10:28;21.30;99.90
5246;DHT22;54412;51.206;6.888;2023-07-24T14:12:54;21.30;99.90
5246;DHT22;54412;51.206;6.888;2023-07-24T14:15:19;21.40;99.90
5246;DHT22;54412;51.206;6.888;2023-07-24T14:17:45;21.50;99.90
5246;DHT22;54412;51.206;6.888;2023-07-24T14:20:11;21.60;99.90
5246;DHT22;54412;51.206;6.888;2023-07-24T14:22:37;21.70;99.90
5246;DHT22;54412;51.206;6.888;2023-07-24T14:25:03;21.60;99.90
5246;DHT22;54412;51.206;6.888;2023-07-24T14:27:31;21.70;99.90
5246;DHT22;54412;51.206;6.888;2023-07-24T14:29:57;21.80;99.90
5246;DHT22;54412;51.206;6.888;2023-07-24T14:32:22;21.60;99.90
5246;DHT22;54412;51.206;6.888;2023-07-24T14:34:51;21.70;99.90
5246;DHT22;54412;51.206;6.888;2023-07-24T14:37:18;21.80;99.90
5246;DHT22;54412;51.206;6.888;2023-07-24T14:39:44;21.60;99.90
5246;DHT22;54412;51.206;6.888;2023-07-24T14:42:11;21.50;99.90
5246;DHT22;54412;51.206;6.888;2023-07-24T14:44:37;21.30;99.90
5246;DHT22;54412;51.206;6.888;2023-07-24T14:47:03;21.10;99.90
5246;DHT22;54412;51.206;6.888;2023-07-24T14:49:28;21.00;99.90
5246;DHT22;54412;51.206;6.888;2023-07-24T14:51:54;20.80;99.90
5246;DHT22;54412;51.206;6.888;2023-07-24T14:54:20;20.70;99.90
5246;DHT22;54412;51.206;6.888;2023-07-24T14:56:45;20.60;99.90
5246;DHT22;54412;51.206;6.888;2023-07-24T14:59:11;20.40;99.90
5246;DHT22;54412;51.206;6.888;2023-07-24T15:01:37;20.30;99.90
5246;DHT22;54412;51.206;6.888;2023-07-24T15:04:02;20.30;99.90
5246;DHT22;54412;51.206;6.888;2023-07-24T15:06:28;20.40;99.90
5246;DHT22;54412;51.206;6.888;2023-07-24T15:08:54;20.50;99.90
5246;DHT22;54412;51.206;6.888;2023-07-24T15:11:22;20.50;99.90
5246;DHT22;54412;51.206;6.888;2023-07-24T15:13:49;20.60;99.90
5246;DHT22;54412;51.206;6.888;2023-07-24T15:16:14;20.90;99.90
5246;DHT22;54412;51.206;6.888;2023-07-24T15:18:40;21.00;99.90
5246;DHT22;54412;51.206;6.888;2023-07-24T15:21:06;21.20;99.90
5246;DHT22;54412;51.206;6.888;2023-07-24T15:23:32;21.40;99.90
5246;DHT22;54412;51.206;6.888;2023-07-24T15:25:58;21.40;99.90
5246;DHT22;54412;51.206;6.888;2023-07-24T15:28:24;21.40;99.90
5246;DHT22;54412;51.206;6.888;2023-07-24T15:30:50;21.40;99.90
5246;DHT22;54412;51.206;6.888;2023-07-24T15:33:17;21.10;99.90
5246;DHT22;54412;51.206;6.888;2023-07-24T15:35:43;20.90;99.90
5246;DHT22;54412;51.206;6.888;2023-07-24T15:38:09;20.90;99.90
5246;DHT22;54412;51.206;6.888;2023-07-24T15:40:35;20.90;99.90
5246;DHT22;54412;51.206;6.888;2023-07-24T15:43:02;21.00;99.90